createdAt,value
2018-05-10T00:01:29.771Z,18.30
2018-05-10T00:03:57.275Z,18.30
2018-05-10T00:06:24.804Z,17.90
2018-05-10T00:08:52.309Z,18.20
2018-05-10T00:11:20.598Z,18.50
2018-05-10T00:13:48.119Z,18.50
2018-05-10T00:16:15.646Z,18.40
2018-05-10T00:18:43.146Z,18.20
2018-05-10T00:21:11.442Z,18.20
2018-05-10T00:23:38.945Z,18.10
2018-05-10T00:26:06.480Z,18.20
2018-05-10T00:28:33.994Z,17.80
2018-05-10T00:31:02.286Z,17.50
2018-05-10T00:33:29.799Z,17.40
2018-05-10T00:35:57.305Z,17.30
2018-05-10T00:38:24.839Z,17.20
2018-05-10T00:40:53.359Z,17.30
2018-05-10T00:43:20.886Z,17.30
2018-05-10T00:45:48.392Z,17.60
2018-05-10T00:48:15.923Z,17.50
2018-05-10T00:50:43.461Z,17.80
2018-05-10T00:53:11.246Z,18.00
2018-05-10T00:55:39.021Z,17.90
2018-05-10T00:58:06.874Z,18.00
2018-05-10T01:00:34.640Z,18.10
2018-05-10T01:03:02.164Z,18.00
2018-05-10T01:05:29.670Z,17.80
2018-05-10T01:07:57.210Z,17.70
2018-05-10T01:10:24.709Z,17.70
2018-05-10T01:12:53.010Z,17.70
2018-05-10T01:15:20.534Z,17.70
2018-05-10T01:17:48.826Z,17.50
2018-05-10T01:20:17.101Z,17.60
2018-05-10T01:22:45.719Z,17.60
2018-05-10T01:25:13.478Z,17.60
2018-05-10T01:27:41.012Z,17.70
2018-05-10T01:30:08.519Z,17.70
2018-05-10T01:32:36.047Z,17.70
2018-05-10T01:35:15.488Z,17.60
2018-05-10T01:37:43.018Z,17.60
2018-05-10T01:40:10.528Z,17.50
2018-05-10T01:42:38.057Z,17.50
2018-05-10T01:45:05.820Z,17.30
2018-05-10T01:47:33.674Z,17.20
2018-05-10T01:50:01.439Z,17.10
2018-05-10T01:52:28.993Z,17.10
2018-05-10T01:54:56.501Z,17.10
2018-05-10T01:57:24.800Z,17.00
2018-05-10T01:59:52.306Z,17.00
2018-05-10T02:02:19.834Z,17.00
2018-05-10T02:04:47.347Z,17.10
2018-05-10T02:07:15.642Z,17.20
2018-05-10T02:09:43.150Z,17.10
2018-05-10T02:12:10.682Z,17.20
2018-05-10T02:14:38.492Z,17.30
2018-05-10T02:17:05.999Z,17.40
2018-05-10T02:19:33.759Z,17.20
2018-05-10T02:22:01.284Z,17.00
2018-05-10T02:24:28.793Z,17.20
2018-05-10T02:26:56.317Z,17.20
2018-05-10T02:29:23.826Z,17.50
2018-05-10T02:31:51.367Z,17.60
2018-05-10T02:34:18.867Z,17.60
2018-05-10T02:36:46.410Z,17.40
2018-05-10T02:39:14.678Z,17.40
2018-05-10T02:41:42.962Z,17.50
2018-05-10T02:44:11.234Z,17.60
2018-05-10T02:46:38.740Z,17.60
2018-05-10T02:49:06.281Z,17.50
2018-05-10T02:51:33.786Z,17.50
2018-05-10T02:54:02.421Z,17.40
2018-05-10T02:56:29.926Z,17.40
2018-05-10T02:58:58.239Z,17.30
2018-05-10T03:01:25.738Z,17.20
2018-05-10T03:03:53.261Z,17.00
2018-05-10T03:06:20.791Z,16.70
2018-05-10T03:08:48.333Z,16.60
2018-05-10T03:11:15.846Z,16.70
2018-05-10T03:13:43.382Z,16.80
2018-05-10T03:16:10.890Z,16.70
2018-05-10T03:18:39.173Z,16.80
2018-05-10T03:21:06.693Z,16.90
2018-05-10T03:23:34.215Z,16.50
2018-05-10T03:26:01.721Z,16.20
2018-05-10T03:28:30.048Z,16.00
2018-05-10T03:30:57.545Z,16.00
2018-05-10T03:33:25.070Z,16.00
2018-05-10T03:35:52.586Z,16.00
2018-05-10T03:38:20.878Z,15.90
2018-05-10T03:40:48.377Z,15.90
2018-05-10T03:43:15.931Z,15.70
2018-05-10T03:45:43.778Z,16.10
2018-05-10T03:48:11.308Z,16.20
2018-05-10T03:50:38.822Z,16.30
2018-05-10T03:53:06.355Z,16.50
2018-05-10T03:55:33.857Z,16.60
2018-05-10T03:58:02.150Z,16.60
2018-05-10T04:00:29.669Z,16.60
2018-05-10T04:06:19.685Z,16.20
2018-05-10T04:08:59.926Z,16.00
2018-05-10T04:11:27.429Z,16.00
2018-05-10T04:13:54.949Z,16.10
2018-05-10T04:16:23.217Z,16.10
2018-05-10T04:18:51.542Z,16.10
2018-05-10T04:21:19.041Z,16.40
2018-05-10T04:23:46.600Z,16.40
2018-05-10T04:26:14.102Z,16.60
2018-05-10T04:28:41.692Z,16.60
2018-05-10T04:31:09.154Z,16.70
2018-05-10T04:33:36.677Z,16.60
2018-05-10T04:36:04.180Z,16.60
2018-05-10T04:38:32.469Z,16.40
2018-05-10T04:41:00.277Z,16.40
2018-05-10T04:43:27.800Z,16.70
2018-05-10T04:45:55.297Z,16.80
2018-05-10T04:48:23.254Z,16.80
2018-05-10T04:50:50.754Z,16.70
2018-05-10T04:53:19.027Z,16.60
2018-05-10T04:55:47.321Z,16.60
2018-05-10T04:58:14.835Z,16.50
2018-05-10T05:00:42.358Z,16.60
2018-05-10T05:03:09.885Z,16.60
2018-05-10T05:05:37.448Z,16.70
2018-05-10T05:08:04.953Z,16.70
2018-05-10T05:10:32.483Z,16.80
2018-05-10T05:12:59.984Z,17.00
2018-05-10T05:15:27.522Z,17.00
2018-05-10T05:17:55.103Z,17.00
2018-05-10T05:20:22.572Z,17.00
2018-05-10T05:22:50.843Z,17.30
2018-05-10T05:25:19.129Z,17.50
2018-05-10T05:27:46.629Z,17.50
2018-05-10T05:30:14.485Z,17.60
2018-05-10T05:32:42.063Z,17.60
2018-05-10T05:35:09.510Z,17.60
2018-05-10T05:37:37.038Z,17.50
2018-05-10T05:40:04.547Z,17.40
2018-05-10T05:42:32.070Z,17.40
2018-05-10T05:44:59.593Z,17.30
2018-05-10T05:47:27.126Z,17.50
2018-05-10T05:49:55.400Z,17.70
2018-05-10T05:52:23.689Z,17.60
2018-05-10T05:54:51.190Z,17.50
2018-05-10T05:57:19.038Z,17.60
2018-05-10T05:59:46.553Z,17.70
2018-05-10T06:02:14.837Z,18.30
2018-05-10T06:04:42.344Z,18.20
2018-05-10T06:07:09.878Z,18.60
2018-05-10T06:09:37.643Z,18.80
2018-05-10T06:12:05.173Z,18.70
2018-05-10T06:14:32.702Z,18.80
2018-05-10T06:17:00.974Z,19.00
2018-05-10T06:19:29.279Z,19.10
2018-05-10T06:21:56.791Z,19.10
2018-05-10T06:24:24.320Z,19.00
2018-05-10T06:26:51.828Z,19.30
2018-05-10T06:29:20.118Z,19.40
2018-05-10T06:31:47.618Z,19.40
2018-05-10T06:34:15.150Z,19.70
2018-05-10T06:36:42.665Z,20.00
2018-05-10T06:39:10.953Z,20.30
2018-05-10T06:41:38.471Z,20.20
2018-05-10T06:44:06.005Z,20.50
2018-05-10T06:46:33.539Z,20.80
2018-05-10T06:49:01.173Z,21.10
2018-05-10T06:51:29.799Z,21.10
2018-05-10T06:53:57.370Z,21.10
2018-05-10T06:56:25.116Z,21.10
2018-05-10T06:58:52.647Z,21.40
2018-05-10T07:01:20.163Z,21.30
2018-05-10T07:03:47.690Z,21.00
2018-05-10T07:06:15.201Z,21.20
2018-05-10T07:08:43.827Z,21.20
2018-05-10T07:11:11.339Z,21.20
2018-05-10T07:13:38.869Z,21.40
2018-05-10T07:16:06.378Z,21.60
2018-05-10T07:18:33.913Z,21.10
2018-05-10T07:21:01.421Z,21.70
2018-05-10T07:23:28.987Z,21.60
2018-05-10T07:25:56.498Z,21.60
2018-05-10T07:28:24.072Z,21.40
2018-05-10T07:30:51.587Z,21.50
2018-05-10T07:33:19.882Z,20.90
2018-05-10T07:35:47.396Z,20.90
2018-05-10T07:38:14.922Z,21.30
2018-05-10T07:40:43.197Z,21.50
2018-05-10T07:43:10.834Z,21.50
2018-05-10T07:45:38.346Z,21.60
2018-05-10T07:48:06.651Z,21.80
2018-05-10T07:50:34.167Z,21.80
2018-05-10T07:53:02.547Z,22.20
2018-05-10T07:55:30.014Z,22.20
2018-05-10T07:57:58.310Z,22.00
2018-05-10T08:00:25.822Z,22.00
2018-05-10T08:02:53.392Z,21.70
2018-05-10T08:05:20.902Z,21.80
2018-05-10T08:07:48.438Z,21.70
2018-05-10T08:10:15.950Z,21.80
2018-05-10T08:12:43.478Z,21.50
2018-05-10T08:15:10.994Z,21.30
2018-05-10T08:17:38.510Z,21.50
2018-05-10T08:20:06.042Z,21.60
2018-05-10T08:22:34.662Z,21.60
2018-05-10T08:25:02.226Z,21.30
2018-05-10T08:27:51.756Z,21.20
2018-05-10T08:30:19.337Z,20.80
2018-05-10T08:32:46.827Z,20.30
2018-05-10T08:35:15.098Z,21.10
2018-05-10T08:37:43.369Z,21.10
2018-05-10T08:40:11.666Z,21.20
2018-05-10T08:42:40.226Z,21.10
2018-05-10T08:45:10.659Z,21.20
2018-05-10T08:47:39.270Z,21.40
2018-05-10T08:50:06.821Z,21.40
2018-05-10T08:52:34.329Z,21.10
2018-05-10T08:55:02.625Z,21.80
2018-05-10T08:57:30.139Z,21.80
2018-05-10T08:59:57.753Z,21.90
2018-05-10T09:02:25.189Z,22.10
2018-05-10T09:04:52.747Z,22.20
2018-05-10T09:07:20.271Z,22.60
2018-05-10T09:09:47.814Z,23.00
2018-05-10T09:12:15.556Z,23.30
2018-05-10T09:14:43.089Z,23.10
2018-05-10T09:17:10.874Z,23.20
2018-05-10T09:19:38.413Z,22.90
2018-05-10T09:22:06.284Z,22.90
2018-05-10T09:24:33.814Z,22.80
2018-05-10T09:27:01.318Z,22.90
2018-05-10T09:29:28.853Z,22.40
2018-05-10T09:31:56.364Z,22.00
2018-05-10T09:34:25.018Z,22.00
2018-05-10T09:36:53.289Z,22.00
2018-05-10T09:39:20.882Z,22.00
2018-05-10T09:41:48.346Z,21.90
2018-05-10T09:44:16.645Z,22.50
2018-05-10T09:46:44.159Z,22.50
2018-05-10T09:49:11.690Z,22.90
2018-05-10T09:51:39.227Z,22.90
2018-05-10T09:54:07.093Z,22.90
2018-05-10T09:56:34.606Z,22.70
2018-05-10T09:59:02.898Z,22.00
2018-05-10T10:01:30.405Z,22.00
2018-05-10T10:03:57.936Z,22.20
2018-05-10T10:06:25.441Z,22.40
2018-05-10T10:08:53.743Z,22.60
2018-05-10T10:11:21.247Z,22.60
2018-05-10T10:13:48.781Z,22.30
2018-05-10T10:16:16.282Z,22.40
2018-05-10T10:18:44.584Z,22.50
2018-05-10T10:21:12.090Z,22.40
2018-05-10T10:23:39.623Z,22.20
2018-05-10T10:26:07.162Z,22.10
2018-05-10T10:28:34.695Z,22.30
2018-05-10T10:31:02.491Z,22.60
2018-05-10T10:33:30.021Z,22.40
2018-05-10T10:35:57.558Z,22.70
2018-05-10T10:38:25.847Z,22.70
2018-05-10T10:40:53.353Z,22.70
2018-05-10T10:43:20.921Z,22.80
2018-05-10T10:45:49.229Z,22.90
2018-05-10T10:48:17.502Z,22.80
2018-05-10T10:50:45.801Z,22.80
2018-05-10T10:53:13.364Z,22.80
2018-05-10T10:55:40.873Z,22.70
2018-05-10T10:58:09.142Z,23.50
2018-05-10T11:00:36.670Z,23.40
2018-05-10T11:03:04.169Z,23.30
2018-05-10T11:05:32.458Z,23.10
2018-05-10T11:07:59.971Z,23.00
2018-05-10T11:10:27.494Z,23.20
2018-05-10T11:12:54.993Z,22.80
2018-05-10T11:15:22.553Z,22.40
2018-05-10T11:17:50.833Z,22.20
2018-05-10T11:20:19.131Z,21.80
2018-05-10T11:22:46.638Z,21.80
2018-05-10T11:25:14.166Z,21.10
2018-05-10T11:27:41.698Z,21.10
2018-05-10T11:30:09.230Z,21.50
2018-05-10T11:32:37.497Z,22.10
2018-05-10T11:35:05.024Z,22.10
2018-05-10T11:37:32.527Z,22.80
2018-05-10T11:40:00.827Z,22.70
2018-05-10T11:42:28.627Z,22.70
2018-05-10T11:44:56.465Z,22.50
2018-05-10T11:47:23.968Z,22.50
2018-05-10T11:49:52.261Z,21.90
2018-05-10T11:52:20.534Z,22.20
2018-05-10T11:54:49.054Z,22.50
2018-05-10T11:57:16.599Z,22.50
2018-05-10T11:59:44.099Z,22.40
2018-05-10T12:02:11.607Z,22.30
2018-05-10T12:04:39.129Z,22.50
2018-05-10T12:07:07.438Z,22.80
2018-05-10T12:09:34.976Z,22.80
2018-05-10T12:12:02.501Z,22.80
2018-05-10T12:14:30.026Z,22.90
2018-05-10T12:16:57.531Z,22.60
2018-05-10T12:19:25.866Z,22.20
2018-05-10T12:21:53.374Z,22.20
2018-05-10T12:24:20.907Z,21.20
2018-05-10T12:26:49.210Z,20.50
2018-05-10T12:29:16.744Z,20.50
2018-05-10T12:31:45.018Z,20.20
2018-05-10T12:34:13.318Z,20.20
2018-05-10T12:36:40.822Z,20.20
2018-05-10T12:39:08.341Z,20.30
2018-05-10T12:41:36.145Z,20.20
2018-05-10T12:44:03.663Z,20.20
2018-05-10T12:46:31.161Z,20.00
2018-05-10T12:48:58.682Z,19.80
2018-05-10T12:51:26.228Z,19.80
2018-05-10T12:53:53.755Z,19.90
2018-05-10T12:56:22.074Z,19.70
2018-05-10T12:58:49.831Z,19.70
2018-05-10T13:01:17.358Z,19.90
2018-05-10T13:03:44.878Z,19.60
2018-05-10T13:06:12.406Z,19.90
2018-05-10T13:08:39.918Z,20.00
2018-05-10T13:11:08.542Z,20.30
2018-05-10T13:13:36.055Z,20.20
2018-05-10T13:16:04.366Z,20.30
2018-05-10T13:18:31.866Z,20.30
2018-05-10T13:21:00.401Z,20.10
2018-05-10T13:23:27.916Z,20.00
2018-05-10T13:25:56.205Z,20.30
2018-05-10T13:28:23.779Z,20.30
2018-05-10T13:30:51.345Z,20.10
2018-05-10T13:33:18.858Z,20.30
2018-05-10T13:35:47.158Z,19.60
2018-05-10T13:38:14.740Z,19.60
2018-05-10T13:40:42.981Z,19.20
2018-05-10T13:43:10.491Z,19.20
2018-05-10T13:45:38.026Z,19.20
2018-05-10T13:48:05.541Z,19.60
2018-05-10T13:50:33.069Z,19.80
2018-05-10T13:53:01.493Z,19.80
2018-05-10T13:55:28.930Z,19.80
2018-05-10T13:57:56.437Z,20.00
2018-05-10T14:00:23.974Z,19.70
2018-05-10T14:02:51.473Z,19.50
2018-05-10T14:05:18.997Z,19.70
2018-05-10T14:07:46.501Z,19.80
2018-05-10T14:10:14.799Z,19.90
2018-05-10T14:12:42.302Z,19.90
2018-05-10T14:15:09.847Z,20.30
2018-05-10T14:17:37.357Z,20.60
2018-05-10T14:20:04.890Z,20.30
2018-05-10T14:22:33.204Z,20.00
2018-05-10T14:25:00.733Z,20.00
2018-05-10T14:27:29.001Z,19.50
2018-05-10T14:29:56.564Z,19.50
2018-05-10T14:32:24.087Z,19.30
2018-05-10T14:34:51.621Z,19.30
2018-05-10T14:37:19.132Z,19.60
2018-05-10T14:39:47.431Z,19.30
2018-05-10T14:42:14.942Z,19.30
2018-05-10T14:44:43.246Z,18.50
2018-05-10T14:47:10.754Z,18.50
2018-05-10T14:49:38.275Z,18.30
2018-05-10T14:52:05.786Z,18.10
2018-05-10T14:54:34.082Z,18.00
2018-05-10T14:57:01.606Z,18.00
2018-05-10T14:59:29.157Z,17.70
2018-05-10T15:01:56.662Z,17.70
2018-05-10T15:04:24.185Z,17.80
2018-05-10T15:06:52.450Z,17.60
2018-05-10T15:09:19.956Z,17.50
2018-05-10T15:11:47.478Z,17.50
2018-05-10T15:14:15.744Z,17.40
2018-05-10T15:16:44.033Z,17.30
2018-05-10T15:19:12.301Z,17.20
2018-05-10T15:21:40.587Z,17.20
2018-05-10T15:24:08.089Z,17.20
2018-05-10T15:26:35.634Z,17.20
2018-05-10T15:29:03.142Z,17.20
2018-05-10T15:31:31.439Z,16.60
2018-05-10T15:33:58.938Z,16.50
2018-05-10T15:36:26.470Z,16.60
2018-05-10T15:38:54.229Z,16.60
2018-05-10T15:41:21.749Z,16.50
2018-05-10T15:43:50.022Z,16.30
2018-05-10T15:46:18.312Z,16.10
2018-05-10T15:48:45.884Z,16.10
2018-05-10T15:51:13.414Z,15.90
2018-05-10T15:53:40.915Z,16.10
2018-05-10T15:56:08.770Z,16.20
2018-05-10T15:58:36.278Z,16.30
2018-05-10T16:01:04.579Z,16.50
2018-05-10T16:03:32.086Z,16.50
2018-05-10T16:05:59.614Z,16.40
2018-05-10T16:08:27.118Z,16.40
2018-05-10T16:10:55.414Z,16.10
2018-05-10T16:13:22.930Z,16.10
2018-05-10T16:15:50.685Z,16.10
2018-05-10T16:18:18.203Z,16.00
2018-05-10T16:20:45.731Z,15.70
2018-05-10T16:23:14.003Z,15.80
2018-05-10T16:25:42.627Z,16.00
2018-05-10T16:28:10.172Z,16.00
2018-05-10T16:30:37.702Z,16.10
2018-05-10T16:33:05.976Z,15.90
2018-05-10T16:35:33.510Z,15.90
2018-05-10T16:38:01.014Z,15.70
2018-05-10T16:40:28.551Z,15.80
2018-05-10T16:42:56.071Z,15.80
2018-05-10T16:45:23.599Z,15.70
2018-05-10T16:47:51.111Z,15.70
2018-05-10T16:50:19.429Z,15.40
2018-05-10T16:52:46.936Z,15.40
2018-05-10T16:55:14.492Z,15.50
2018-05-10T16:57:42.772Z,15.60
2018-05-10T17:00:10.303Z,15.60
2018-05-10T17:02:37.822Z,15.70
2018-05-10T17:05:05.358Z,15.70
2018-05-10T17:07:32.874Z,15.60
2018-05-10T17:10:00.414Z,15.70
2018-05-10T17:12:27.930Z,15.60
2018-05-10T17:14:55.501Z,15.40
2018-05-10T17:17:23.054Z,15.50
2018-05-10T17:19:50.634Z,15.50
2018-05-10T17:22:18.158Z,15.60
2018-05-10T17:24:45.669Z,15.60
2018-05-10T17:27:13.444Z,15.60
2018-05-10T17:29:41.209Z,15.40
2018-05-10T17:32:08.761Z,15.50
2018-05-10T17:34:37.038Z,15.80
2018-05-10T17:37:05.334Z,15.60
2018-05-10T17:39:33.117Z,15.60
2018-05-10T17:42:00.673Z,15.70
2018-05-10T17:44:28.437Z,15.60
2018-05-10T17:46:56.303Z,15.80
2018-05-10T17:49:23.835Z,15.70
2018-05-10T17:51:51.617Z,15.40
2018-05-10T17:54:19.126Z,15.40
2018-05-10T17:56:47.425Z,15.30
2018-05-10T17:59:14.985Z,15.20
2018-05-10T18:01:42.520Z,15.20
2018-05-10T18:04:10.793Z,15.50
2018-05-10T18:06:39.090Z,15.50
2018-05-10T18:09:06.603Z,15.50
2018-05-10T18:11:34.138Z,15.00
2018-05-10T18:14:01.720Z,14.80
2018-05-10T18:16:29.213Z,14.90
2018-05-10T18:18:57.273Z,14.80
2018-05-10T18:21:25.529Z,14.90
2018-05-10T18:23:53.595Z,14.70
2018-05-10T18:26:21.418Z,14.70
2018-05-10T18:28:49.019Z,14.80
2018-05-10T18:31:17.169Z,14.90
2018-05-10T18:33:45.479Z,14.90
2018-05-10T18:36:13.025Z,14.90
2018-05-10T18:38:41.301Z,15.10
2018-05-10T18:41:09.645Z,15.00
2018-05-10T18:43:37.160Z,14.90
2018-05-10T18:46:04.695Z,14.80
2018-05-10T18:48:32.964Z,15.00
2018-05-10T18:51:01.302Z,15.00
2018-05-10T18:53:28.810Z,15.00
2018-05-10T18:55:56.355Z,15.10
2018-05-10T18:58:24.705Z,15.30
2018-05-10T19:00:52.429Z,15.30
2018-05-10T19:03:19.935Z,15.20
2018-05-10T19:05:48.352Z,14.90
2018-05-10T19:08:16.131Z,14.90
2018-05-10T19:10:43.669Z,14.90
2018-05-10T19:13:11.187Z,14.80
2018-05-10T19:15:39.473Z,14.60
2018-05-10T19:18:07.741Z,14.50
2018-05-10T19:20:36.045Z,14.50
2018-05-10T19:23:03.553Z,14.50
2018-05-10T19:25:31.379Z,14.60
2018-05-10T19:27:58.899Z,14.60
2018-05-10T19:30:26.429Z,14.50
2018-05-10T19:32:54.257Z,14.50
2018-05-10T19:35:21.768Z,14.50
2018-05-10T19:37:50.074Z,14.40
2018-05-10T19:40:17.586Z,14.40
2018-05-10T19:42:45.887Z,14.50
2018-05-10T19:45:13.505Z,14.50
2018-05-10T19:47:42.051Z,14.60
2018-05-10T19:50:09.567Z,14.50
2018-05-10T19:52:37.866Z,14.40
2018-05-10T19:55:05.384Z,14.40
2018-05-10T19:57:33.686Z,14.30
2018-05-10T20:00:01.478Z,14.20
2018-05-10T20:02:29.002Z,14.30
2018-05-10T20:04:56.808Z,14.30
2018-05-10T20:07:24.349Z,14.50
2018-05-10T20:09:51.862Z,14.50
2018-05-10T20:12:20.177Z,14.40
2018-05-10T20:14:47.691Z,14.40
2018-05-10T20:17:15.990Z,14.30
2018-05-10T20:19:43.515Z,14.30
2018-05-10T20:22:11.828Z,14.40
2018-05-10T20:24:39.601Z,14.40
2018-05-10T20:27:07.131Z,14.50
2018-05-10T20:29:34.637Z,14.40
2018-05-10T20:32:02.180Z,14.50
2018-05-10T20:34:29.700Z,14.50
2018-05-10T20:36:57.235Z,14.30
2018-05-10T20:39:25.762Z,14.20
2018-05-10T20:41:53.627Z,14.20
2018-05-10T20:44:21.159Z,14.30
2018-05-10T20:46:48.690Z,14.30
2018-05-10T20:49:16.957Z,14.30
2018-05-10T20:51:45.489Z,14.40
2018-05-10T20:54:13.027Z,14.30
2018-05-10T20:56:40.557Z,14.30
2018-05-10T20:59:09.081Z,14.30
2018-05-10T21:01:36.614Z,14.30
2018-05-10T21:04:04.121Z,14.30
2018-05-10T21:06:32.444Z,14.30
2018-05-10T21:08:59.966Z,14.30
2018-05-10T21:11:27.496Z,14.30
2018-05-10T21:13:55.000Z,14.30
2018-05-10T21:16:22.575Z,14.30
2018-05-10T21:18:50.821Z,14.20
2018-05-10T21:21:19.137Z,14.10
2018-05-10T21:23:46.649Z,14.10
2018-05-10T21:26:15.025Z,14.10
2018-05-10T21:28:42.486Z,14.10
2018-05-10T21:31:10.018Z,14.20
2018-05-10T21:33:37.533Z,14.30
2018-05-10T21:36:05.066Z,14.40
2018-05-10T21:38:32.575Z,14.30
2018-05-10T21:41:00.105Z,14.30
2018-05-10T21:43:27.616Z,14.30
2018-05-10T21:45:55.910Z,14.30
2018-05-10T21:48:24.033Z,14.30
2018-05-10T21:50:51.869Z,14.30
2018-05-10T21:53:19.466Z,14.40
2018-05-10T21:55:46.915Z,14.40
2018-05-10T21:58:14.465Z,14.30
2018-05-10T22:00:41.983Z,14.40
2018-05-10T22:03:09.518Z,14.40
2018-05-10T22:05:37.313Z,14.30
2018-05-10T22:08:04.866Z,14.40
2018-05-10T22:10:32.395Z,14.60
2018-05-10T22:12:59.938Z,14.70
2018-05-10T22:15:28.213Z,14.90
2018-05-10T22:17:56.838Z,14.80
2018-05-10T22:20:24.602Z,14.80
2018-05-10T22:22:52.135Z,14.60
2018-05-10T22:25:19.678Z,14.60
2018-05-10T22:27:47.205Z,14.50
2018-05-10T22:30:15.035Z,14.60
2018-05-10T22:32:42.570Z,14.80
2018-05-10T22:35:10.170Z,15.00
2018-05-10T22:37:38.462Z,14.80
2018-05-10T22:40:06.742Z,14.70
2018-05-10T22:42:35.101Z,14.90
2018-05-10T22:45:02.615Z,14.90
2018-05-10T22:47:30.150Z,15.00
2018-05-10T22:49:57.950Z,15.10
2018-05-10T22:52:25.491Z,15.00
2018-05-10T22:54:53.266Z,15.00
2018-05-10T22:57:20.850Z,15.00
2018-05-10T22:59:48.456Z,14.80
2018-05-10T23:02:15.911Z,14.50
2018-05-10T23:04:43.413Z,14.50
2018-05-10T23:07:10.942Z,14.70
2018-05-10T23:09:38.546Z,14.60
2018-05-10T23:12:06.047Z,14.50
2018-05-10T23:14:33.537Z,14.50
2018-05-10T23:17:01.073Z,14.40
2018-05-10T23:19:28.592Z,14.50
2018-05-10T23:21:56.130Z,14.40
2018-05-10T23:24:24.406Z,13.90
2018-05-10T23:26:52.707Z,13.90
2018-05-10T23:29:20.222Z,13.90
2018-05-10T23:31:48.046Z,13.70
2018-05-10T23:34:15.559Z,13.70
2018-05-10T23:36:43.855Z,13.90
2018-05-10T23:39:11.639Z,13.90
2018-05-10T23:41:39.187Z,13.80
2018-05-10T23:44:06.704Z,13.80
2018-05-10T23:46:35.001Z,13.50
2018-05-10T23:49:02.509Z,13.50
2018-05-10T23:51:30.826Z,13.60
2018-05-10T23:53:58.572Z,13.60
2018-05-10T23:56:26.859Z,13.40
2018-05-10T23:58:54.655Z,13.40
